Time;durP1;ratioP1;P1;durP2;ratioP2;P2;SDS_P1;SDS_P2;PMS_P1;PMS_P2;Temp;Humidity;BMP_temperature;BMP_pressure;BME280_temperature;BME280_humidity;BME280_pressure;Samples;Min_cycle;Max_cycle;Signal;HPM_P1;HPM_P2
2022/06/25 00:00:23;;;;;;;1.63;1.50;;;;;;;16.66;100.00;99925.31;5008143;28;20213;-76
2022/06/25 00:02:48;;;;;;;1.70;1.60;;;;;;;16.66;100.00;99922.69;5003685;28;20185;-76
2022/06/25 00:05:29;;;;;;;2.00;1.63;;;;;;;16.65;100.00;99923.59;5002491;28;20212;-76
2022/06/25 00:07:58;;;;;;;1.80;1.70;;;;;;;16.63;100.00;99921.06;5002383;28;20267;-77
2022/06/25 00:10:24;;;;;;;2.00;1.57;;;;;;;16.63;100.00;99923.69;4996220;28;20182;-76
2022/06/25 00:12:50;;;;;;;1.50;1.40;;;;;;;16.61;100.00;99930.72;5005086;28;20184;-77
2022/06/25 00:15:16;;;;;;;1.53;1.40;;;;;;;16.59;100.00;99935.16;5003817;28;20199;-75
2022/06/25 00:17:41;;;;;;;2.67;1.53;;;;;;;16.56;100.00;99936.13;5001372;28;20188;-76
2022/06/25 00:20:08;;;;;;;1.60;1.50;;;;;;;16.55;100.00;99931.81;5001597;28;20276;-76
2022/06/25 00:22:33;;;;;;;1.43;1.30;;;;;;;16.54;100.00;99937.13;5003445;28;20688;-76
2022/06/25 00:24:59;;;;;;;2.60;1.50;;;;;;;16.55;100.00;99944.06;4999558;28;20204;-77
2022/06/25 00:27:24;;;;;;;1.60;1.50;;;;;;;16.52;100.00;99937.16;5002309;28;20346;-76
2022/06/25 00:29:50;;;;;;;1.77;1.40;;;;;;;16.51;100.00;99943.28;5002884;28;20930;-76
2022/06/25 00:32:15;;;;;;;1.60;1.50;;;;;;;16.49;100.00;99944.28;5004414;28;20192;-77
2022/06/25 00:34:41;;;;;;;1.70;1.60;;;;;;;16.48;100.00;99943.44;5001884;28;20204;-77
2022/06/25 00:37:07;;;;;;;1.70;1.43;;;;;;;16.46;100.00;99945.25;4996473;28;20215;-76
2022/06/25 00:39:34;;;;;;;1.50;1.33;;;;;;;16.44;100.00;99947.91;4999184;28;20321;-76
2022/06/25 00:41:59;;;;;;;1.60;1.50;;;;;;;16.42;100.00;99951.50;4999402;28;20199;-77
2022/06/25 00:44:28;;;;;;;1.70;1.50;;;;;;;16.40;100.00;99953.31;5012795;28;20212;-76
2022/06/25 00:46:53;;;;;;;1.90;1.40;;;;;;;16.37;100.00;99951.69;4994665;28;20184;-77
2022/06/25 00:49:18;;;;;;;1.70;1.60;;;;;;;16.35;100.00;99950.88;5002384;28;20183;-76
2022/06/25 00:51:47;;;;;;;1.83;1.67;;;;;;;16.34;100.00;99957.03;5002306;28;20816;-76
2022/06/25 00:54:14;;;;;;;2.47;1.37;;;;;;;16.32;100.00;99952.78;4999459;28;20230;-76
2022/06/25 00:56:47;;;;;;;2.47;1.30;;;;;;;16.31;100.00;99949.28;4998112;28;20196;-77
2022/06/25 00:59:18;;;;;;;1.40;1.30;;;;;;;16.28;100.00;99954.63;4997974;28;20193;-76
2022/06/25 01:01:43;;;;;;;1.40;1.30;;;;;;;16.25;100.00;99953.00;5002534;28;20192;-77
2022/06/25 01:04:09;;;;;;;1.50;1.40;;;;;;;16.23;100.00;99946.97;5002507;28;20240;-76
2022/06/25 01:06:34;;;;;;;1.60;1.50;;;;;;;16.22;100.00;99947.06;5003322;28;20212;-77
2022/06/25 01:09:00;;;;;;;1.60;1.50;;;;;;;16.22;100.00;99952.28;5002226;28;20195;-76
2022/06/25 01:11:26;;;;;;;1.97;1.37;;;;;;;16.20;100.00;99949.69;5018516;28;20696;-76
2022/06/25 01:13:52;;;;;;;1.73;1.40;;;;;;;16.18;100.00;99948.06;5002484;28;20755;-76
2022/06/25 01:16:19;;;;;;;1.30;1.20;;;;;;;16.17;100.00;99946.38;5001631;28;20200;-76
2022/06/25 01:18:44;;;;;;;1.60;1.50;;;;;;;16.14;100.00;99952.56;5006684;28;20257;-77
2022/06/25 01:21:10;;;;;;;1.60;1.50;;;;;;;16.13;100.00;99956.91;5022573;28;20660;-77
2022/06/25 01:23:36;;;;;;;2.03;1.50;;;;;;;16.12;100.00;99949.16;5005059;28;20204;-77
2022/06/25 01:26:02;;;;;;;1.67;1.47;;;;;;;16.12;100.00;99956.97;5009700;28;20213;-77
2022/06/25 01:28:27;;;;;;;1.43;1.33;;;;;;;16.10;100.00;99953.56;5005506;28;20188;-75
2022/06/25 01:30:53;;;;;;;1.50;1.33;;;;;;;16.08;100.00;99956.25;5011762;28;20187;-76
2022/06/25 01:33:18;;;;;;;1.47;1.37;;;;;;;16.07;100.00;99951.06;5004259;28;20246;-76
2022/06/25 01:35:44;;;;;;;1.60;1.50;;;;;;;16.05;100.00;99955.50;5007615;28;20188;-76
2022/06/25 01:38:09;;;;;;;1.50;1.40;;;;;;;16.04;100.00;99959.00;5006518;28;20199;-76
2022/06/25 01:40:35;;;;;;;3.03;1.50;;;;;;;16.02;100.00;99946.03;5006892;28;20924;-76
2022/06/25 01:43:01;;;;;;;1.70;1.60;;;;;;;16.00;100.00;99958.28;5008530;28;20212;-76
2022/06/25 01:45:35;;;;;;;2.40;1.40;;;;;;;16.00;100.00;99951.31;5022799;28;20595;-75
2022/06/25 01:48:02;;;;;;;1.83;1.40;;;;;;;16.01;100.00;99954.75;5000309;28;20192;-76
2022/06/25 01:50:28;;;;;;;2.00;1.70;;;;;;;15.97;100.00;99954.03;5000606;28;20193;-76
2022/06/25 01:52:53;;;;;;;1.67;1.57;;;;;;;15.97;100.00;99951.41;5009569;28;20192;-76
2022/06/25 01:55:19;;;;;;;1.50;1.40;;;;;;;15.98;100.00;99954.88;5006073;28;20195;-76
2022/06/25 01:57:46;;;;;;;1.47;1.37;;;;;;;15.98;100.00;99960.09;5003861;28;20231;-76
2022/06/25 02:00:15;;;;;;;1.60;1.50;;;;;;;15.97;100.00;99961.00;5005128;28;20208;-77
2022/06/25 02:02:41;;;;;;;1.90;1.57;;;;;;;15.95;100.00;99958.44;5008585;28;20198;-76
2022/06/25 02:05:07;;;;;;;2.20;1.40;;;;;;;15.93;100.00;99962.88;5018385;28;20200;-77
2022/06/25 02:07:33;;;;;;;1.60;1.50;;;;;;;15.93;100.00;99967.25;5002138;28;20188;-76
2022/06/25 02:09:58;;;;;;;1.40;1.30;;;;;;;15.92;100.00;99968.16;5005235;28;20189;-76
2022/06/25 02:12:24;;;;;;;1.70;1.40;;;;;;;15.91;100.00;99969.91;5022485;28;20652;-76
2022/06/25 02:14:49;;;;;;;1.40;1.30;;;;;;;15.92;100.00;99976.00;5004994;28;20204;-76
2022/06/25 02:17:15;;;;;;;1.50;1.40;;;;;;;15.91;100.00;99976.91;5007891;28;20189;-76
2022/06/25 02:19:40;;;;;;;1.20;1.20;;;;;;;15.89;100.00;99971.72;5019713;28;20195;-76
2022/06/25 02:22:06;;;;;;;1.40;1.30;;;;;;;15.87;100.00;99970.94;5008478;28;20199;-76
2022/06/25 02:24:32;;;;;;;1.40;1.30;;;;;;;15.85;100.00;99970.13;5007186;28;20219;-76
2022/06/25 02:26:57;;;;;;;1.47;1.30;;;;;;;15.82;100.00;99978.88;5022443;28;20183;-76
2022/06/25 02:29:23;;;;;;;1.63;1.53;;;;;;;15.82;100.00;99984.09;5010919;28;20231;-76
2022/06/25 02:31:48;;;;;;;1.60;1.50;;;;;;;15.82;100.00;99978.03;5004521;28;20234;-76
2022/06/25 02:34:14;;;;;;;1.17;1.17;;;;;;;15.80;100.00;99983.31;5003825;28;20213;-76
2022/06/25 02:36:39;;;;;;;1.47;1.37;;;;;;;15.80;100.00;99979.84;5018588;28;20187;-76
2022/06/25 02:39:05;;;;;;;1.50;1.40;;;;;;;15.79;100.00;99975.53;5005360;28;20651;-76
2022/06/25 02:41:30;;;;;;;2.70;1.27;;;;;;;15.76;100.00;99968.69;5018839;28;20184;-76
2022/06/25 02:43:55;;;;;;;1.57;1.40;;;;;;;15.76;100.00;99980.84;5019197;28;20210;-76
2022/06/25 02:46:21;;;;;;;1.40;1.30;;;;;;;15.73;100.00;99973.16;5021254;28;20203;-76
2022/06/25 02:48:46;;;;;;;1.70;1.27;;;;;;;15.69;100.00;99973.25;5004027;28;20209;-76
2022/06/25 02:51:11;;;;;;;1.40;1.30;;;;;;;15.69;100.00;99978.47;5007519;28;20200;-76
2022/06/25 02:53:37;;;;;;;1.37;1.27;;;;;;;15.68;100.00;99981.13;5006793;28;20216;-75
2022/06/25 02:58:54;;;;;;;2.90;1.40;;;;;;;15.61;100.00;99979.66;5002743;28;20301;-76
2022/06/25 03:01:20;;;;;;;2.37;1.50;;;;;;;15.55;100.00;99985.94;5005918;28;20560;-76
2022/06/25 03:03:45;;;;;;;2.50;1.40;;;;;;;15.48;100.00;99990.50;5000373;28;20233;-77
2022/06/25 03:06:11;;;;;;;2.03;1.30;;;;;;;15.44;100.00;99986.31;5005123;28;20726;-77
2022/06/25 03:08:36;;;;;;;1.87;1.60;;;;;;;15.40;100.00;99989.91;5004654;28;20229;-75
2022/06/25 03:11:02;;;;;;;1.50;1.30;;;;;;;15.37;100.00;99987.41;5003581;28;20196;-76
2022/06/25 03:13:29;;;;;;;1.63;1.50;;;;;;;15.36;100.00;99999.59;5025005;28;20650;-75
2022/06/25 03:15:54;;;;;;;2.40;1.40;;;;;;;15.35;100.00;99990.06;4995034;28;20577;-77
2022/06/25 03:18:20;;;;;;;1.60;1.50;;;;;;;15.36;100.00;99993.50;4993144;28;20196;-77
2022/06/25 03:20:45;;;;;;;2.00;1.50;;;;;;;15.35;100.00;99995.28;5004875;28;20196;-76
2022/06/25 03:23:11;;;;;;;2.60;1.40;;;;;;;15.36;100.00;99993.50;5004567;28;20238;-76
2022/06/25 03:25:36;;;;;;;1.33;1.20;;;;;;;15.36;100.00;99985.69;5006914;28;20214;-76
2022/06/25 03:28:02;;;;;;;1.50;1.40;;;;;;;15.35;100.00;99986.63;5004432;28;20187;-75
2022/06/25 03:30:27;;;;;;;1.57;1.43;;;;;;;15.34;100.00;99987.53;5016375;28;20177;-76
2022/06/25 03:32:52;;;;;;;1.50;1.40;;;;;;;15.31;100.00;99988.47;5004939;28;20202;-76
2022/06/25 03:35:18;;;;;;;2.77;1.37;;;;;;;15.30;100.00;100004.16;5011062;28;20176;-75
2022/06/25 03:37:43;;;;;;;1.83;1.33;;;;;;;15.28;100.00;99992.94;5003399;28;20244;-75
2022/06/25 03:40:09;;;;;;;2.40;1.60;;;;;;;15.28;100.00;100003.34;5005248;28;20191;-76
2022/06/25 03:42:35;;;;;;;1.40;1.30;;;;;;;15.29;100.00;99997.25;5006091;28;20191;-76
2022/06/25 03:45:01;;;;;;;1.70;1.30;;;;;;;15.31;100.00;99998.88;5010164;28;20789;-75
2022/06/25 03:47:27;;;;;;;1.73;1.63;;;;;;;15.34;100.00;100001.41;5005180;28;20614;-75
2022/06/25 03:49:53;;;;;;;2.13;1.77;;;;;;;15.42;100.00;100000.31;5008345;28;20185;-76
2022/06/25 03:52:19;;;;;;;1.40;1.30;;;;;;;15.49;100.00;100007.88;5003881;28;20277;-75
2022/06/25 03:54:45;;;;;;;2.03;1.50;;;;;;;15.69;100.00;100014.13;5003996;28;20294;-75
2022/06/25 03:57:10;;;;;;;2.87;1.47;;;;;;;16.21;100.00;100011.44;5014953;28;20207;-77
2022/06/25 03:59:35;;;;;;;1.60;1.20;;;;;;;16.90;100.00;100017.56;4994957;28;20203;-76
2022/06/25 04:02:01;;;;;;;2.33;1.30;;;;;;;17.66;100.00;100019.75;4999323;28;20671;-76
2022/06/25 04:04:26;;;;;;;1.27;1.17;;;;;;;18.48;100.00;100007.44;5017625;28;20269;-76
2022/06/25 04:06:51;;;;;;;3.10;1.27;;;;;;;18.96;100.00;100018.34;5001905;28;20214;-76
2022/06/25 04:09:17;;;;;;;1.30;1.20;;;;;;;18.87;100.00;100015.19;5019807;28;20218;-76
2022/06/25 04:11:43;;;;;;;1.33;1.00;;;;;;;18.59;100.00;100015.66;5005740;28;20564;-75
2022/06/25 04:14:09;;;;;;;1.20;1.10;;;;;;;18.26;100.00;100022.38;5014292;28;20238;-76
2022/06/25 04:16:34;;;;;;;0.90;0.90;;;;;;;18.01;100.00;100022.59;5004432;28;20224;-76
2022/06/25 04:19:00;;;;;;;1.10;1.00;;;;;;;17.80;100.00;100025.22;5020022;28;20477;-76
2022/06/25 04:21:26;;;;;;;1.73;0.90;;;;;;;17.80;100.00;100025.22;5005345;28;20301;-76
2022/06/25 04:23:52;;;;;;;1.00;1.00;;;;;;;18.55;100.00;100032.44;4997379;28;20236;-77
2022/06/25 04:26:17;;;;;;;1.00;0.90;;;;;;;18.97;100.00;100033.16;4999709;28;20696;-76
2022/06/25 04:31:27;;;;;;;2.70;1.10;;;;;;;18.66;100.00;100031.94;4999933;28;20172;-76
2022/06/25 04:33:53;;;;;;;2.50;1.10;;;;;;;18.58;100.00;100043.63;5009506;28;20196;-76
2022/06/25 04:36:19;;;;;;;2.03;0.97;;;;;;;18.51;100.00;100042.22;5009308;28;20177;-76
2022/06/25 04:38:44;;;;;;;2.13;1.10;;;;;;;18.54;100.00;100044.69;5003688;28;20180;-76
2022/06/25 04:41:10;;;;;;;1.50;1.10;;;;;;;19.02;100.00;100047.72;5004450;28;20182;-76
2022/06/25 04:43:35;;;;;;;1.97;1.10;;;;;;;20.22;100.00;100042.63;5003101;28;20234;-75
2022/06/25 04:46:01;;;;;;;2.43;1.00;;;;;;;21.69;100.00;100045.94;5002294;28;20264;-76
2022/06/25 04:48:26;;;;;;;4.03;1.13;;;;;;;23.11;95.46;100041.56;5005310;28;20238;-76
2022/06/25 04:50:52;;;;;;;4.43;1.10;;;;;;;24.31;91.26;100042.34;5009343;28;20199;-77
2022/06/25 04:53:17;;;;;;;1.80;0.90;;;;;;;25.33;87.25;100044.75;5007040;28;20658;-76
2022/06/25 04:55:43;;;;;;;1.50;1.10;;;;;;;26.15;85.12;100038.56;5021080;28;20184;-76
2022/06/25 04:58:09;;;;;;;2.07;1.00;;;;;;;26.92;83.18;100037.72;5037631;28;20184;-76
2022/06/25 05:00:34;;;;;;;1.63;0.73;;;;;;;27.69;80.22;100034.94;5023582;28;20219;-77
2022/06/25 05:03:00;;;;;;;2.63;0.80;;;;;;;28.25;78.63;100028.38;5023463;28;20239;-76
2022/06/25 05:05:25;;;;;;;2.97;0.87;;;;;;;28.87;77.62;100022.09;5008923;28;20208;-76
2022/06/25 05:07:51;;;;;;;1.07;0.80;;;;;;;29.39;76.37;100021.84;5003156;28;20188;-75
2022/06/25 05:10:16;;;;;;;1.13;0.60;;;;;;;29.90;75.02;100025.06;5007075;28;20268;-75
2022/06/25 05:15:25;;;;;;;0.80;0.80;;;;;;;30.98;72.79;100020.97;5010121;28;20200;-76
2022/06/25 05:17:51;;;;;;;0.63;0.60;;;;;;;31.42;71.94;100025.50;5009948;28;20176;-76
2022/06/25 05:20:16;;;;;;;0.70;0.70;;;;;;;31.86;70.49;100028.16;5003987;28;20208;-76
2022/06/25 05:22:41;;;;;;;0.87;0.60;;;;;;;32.27;69.27;100027.53;5009212;28;20271;-75
2022/06/25 05:25:08;;;;;;;1.85;0.80;;;;;;;32.60;68.32;100024.09;5024755;28;20196;-75
2022/06/25 05:27:33;;;;;;;0.73;0.60;;;;;;;32.90;67.28;100013.81;5023268;28;20267;-75
2022/06/25 05:29:59;;;;;;;1.60;0.70;;;;;;;33.12;66.33;100017.66;5022155;28;20271;-75
2022/06/25 05:32:24;;;;;;;0.60;0.60;;;;;;;33.40;65.96;100028.88;5007687;28;20180;-75
2022/06/25 05:34:50;;;;;;;0.65;0.65;;;;;;;33.69;65.27;100032.84;5006093;28;20764;-75
2022/06/25 05:37:15;;;;;;;1.15;0.50;;;;;;;33.98;65.11;100014.53;5006850;28;20192;-75
2022/06/25 05:39:41;;;;;;;1.55;0.60;;;;;;;34.23;64.24;100025.16;5005105;28;20187;-75
2022/06/25 05:42:07;;;;;;;1.23;0.85;;;;;;;34.45;63.65;100021.72;5007908;28;20208;-75
2022/06/25 05:44:32;;;;;;;1.73;0.70;;;;;;;34.74;63.01;100025.56;5003840;28;20291;-75
2022/06/25 05:46:58;;;;;;;0.70;0.65;;;;;;;34.89;62.27;100020.22;5004453;28;20699;-75
2022/06/25 05:49:24;;;;;;;1.50;0.80;;;;;;;35.07;61.96;100028.03;5002492;28;20188;-76
2022/06/25 05:51:49;;;;;;;0.73;0.70;;;;;;;35.23;61.42;100020.84;5024709;28;20440;-76
2022/06/25 05:54:16;;;;;;;0.77;0.77;;;;;;;35.41;61.02;100024.00;5006876;28;20227;-76
2022/06/25 05:56:41;;;;;;;1.08;0.88;;;;;;;35.54;60.34;100031.47;5006179;28;20923;-76
2022/06/25 05:59:07;;;;;;;0.80;0.80;;;;;;;35.66;59.98;100039.94;5006481;28;20263;-76
2022/06/25 06:01:32;;;;;;;0.60;0.50;;;;;;;35.85;59.27;100038.56;5008251;28;20558;-76
2022/06/25 06:03:57;;;;;;;2.15;0.85;;;;;;;35.95;58.51;100040.13;5006021;28;20227;-77
2022/06/25 06:06:23;;;;;;;0.90;0.80;;;;;;;35.95;57.52;100042.84;5006731;28;20822;-76
2022/06/25 06:08:48;;;;;;;1.50;1.02;;;;;;;35.77;57.82;100046.72;5005458;28;20226;-75
2022/06/25 06:11:14;;;;;;;1.98;1.00;;;;;;;35.83;58.24;100043.28;4993909;28;20247;-76
2022/06/25 06:13:39;;;;;;;1.30;0.70;;;;;;;36.08;57.86;100044.88;5002377;28;20208;-75
2022/06/25 06:16:04;;;;;;;1.67;0.80;;;;;;;36.36;57.77;100041.47;5005841;28;20271;-76
2022/06/25 06:18:30;;;;;;;0.75;0.75;;;;;;;36.44;57.60;100044.94;5021028;28;20208;-76
2022/06/25 06:20:55;;;;;;;0.82;0.70;;;;;;;36.65;57.26;100048.69;5021651;28;20188;-76
2022/06/25 06:23:21;;;;;;;1.40;0.70;;;;;;;36.84;57.17;100051.75;5015947;28;20199;-76
2022/06/25 06:25:46;;;;;;;2.53;0.70;;;;;;;37.06;55.96;100050.75;4995785;28;20211;-76
2022/06/25 06:28:11;;;;;;;1.02;0.90;;;;;;;36.94;56.34;100051.47;5005025;28;20246;-76
2022/06/25 06:30:37;;;;;;;1.38;0.80;;;;;;;36.91;56.45;100063.47;5000969;28;20185;-76
2022/06/25 06:33:03;;;;;;;0.82;0.82;;;;;;;36.96;56.38;100049.41;5018982;28;20231;-75
2022/06/25 06:35:29;;;;;;;1.02;0.70;;;;;;;37.04;56.35;100054.69;5005571;28;20409;-76
2022/06/25 06:37:55;;;;;;;0.65;0.65;;;;;;;36.84;56.77;100063.38;5020398;28;20213;-75
2022/06/25 06:40:21;;;;;;;1.20;1.05;;;;;;;36.75;57.08;100062.69;5004812;28;20280;-76
2022/06/25 06:42:46;;;;;;;0.82;0.70;;;;;;;36.66;56.82;100057.59;5021737;28;20272;-76
2022/06/25 06:45:11;;;;;;;1.83;0.77;;;;;;;36.31;56.57;100059.03;5006069;28;20574;-76
2022/06/25 06:47:37;;;;;;;0.77;0.77;;;;;;;35.80;57.55;100057.09;5010735;28;20811;-75
2022/06/25 06:50:03;;;;;;;0.70;0.70;;;;;;;35.40;57.97;100056.47;5005775;28;20192;-76
2022/06/25 06:52:28;;;;;;;1.00;0.80;;;;;;;35.34;58.32;100049.13;5006942;28;20210;-76
2022/06/25 06:54:53;;;;;;;1.13;0.70;;;;;;;35.41;58.38;100053.59;5004646;28;20223;-76
2022/06/25 06:57:19;;;;;;;1.08;0.80;;;;;;;35.60;58.26;100048.75;5020541;28;20530;-76
2022/06/25 06:59:44;;;;;;;1.05;0.70;;;;;;;35.83;57.76;100040.59;5005767;28;20214;-75
2022/06/25 07:02:09;;;;;;;1.08;0.70;;;;;;;35.81;57.75;100044.50;5001789;28;20185;-75
2022/06/25 07:04:35;;;;;;;2.45;0.75;;;;;;;35.74;57.94;100044.41;5005706;28;20204;-75
2022/06/25 07:07:01;;;;;;;0.90;0.80;;;;;;;35.91;57.72;100034.28;5001208;28;20209;-75
2022/06/25 07:09:26;;;;;;;1.23;0.65;;;;;;;36.23;57.81;100039.47;5009044;28;20636;-75
2022/06/25 07:11:52;;;;;;;1.02;0.80;;;;;;;36.58;56.80;100037.84;5003488;28;20191;-75
2022/06/25 07:14:17;;;;;;;1.10;1.00;;;;;;;36.51;57.04;100033.41;5013196;28;20291;-75
2022/06/25 07:16:43;;;;;;;0.90;0.90;;;;;;;36.56;56.84;100034.50;5005593;28;20182;-75
2022/06/25 07:19:10;;;;;;;2.08;0.90;;;;;;;36.59;56.95;100042.22;5016639;28;20859;-76
2022/06/25 07:21:36;;;;;;;1.50;0.90;;;;;;;36.56;57.03;100037.19;5022839;28;20190;-76
2022/06/25 07:24:01;;;;;;;0.98;0.70;;;;;;;36.62;56.78;100032.91;5018552;28;20207;-76
2022/06/25 07:26:26;;;;;;;0.90;0.80;;;;;;;36.60;56.90;100040.34;5004043;28;20258;-76
2022/06/25 07:28:53;;;;;;;1.05;0.80;;;;;;;36.42;56.94;100029.97;5004202;28;20207;-75
2022/06/25 07:31:18;;;;;;;1.80;0.90;;;;;;;36.16;57.29;100032.16;5020249;28;20211;-75
2022/06/25 07:33:44;;;;;;;1.00;0.80;;;;;;;36.04;57.63;100024.72;5002106;28;20204;-75
2022/06/25 07:36:09;;;;;;;0.85;0.63;;;;;;;35.49;57.73;100022.28;5020327;28;20644;-75
2022/06/25 07:38:35;;;;;;;1.45;0.70;;;;;;;34.83;58.36;100020.97;5000459;28;20556;-75
2022/06/25 07:41:01;;;;;;;1.80;0.75;;;;;;;34.43;58.52;100025.56;5002266;28;20621;-75
2022/06/25 07:43:27;;;;;;;0.82;0.60;;;;;;;34.30;58.55;100018.06;5016636;28;21152;-75
2022/06/25 07:45:54;;;;;;;1.23;0.80;;;;;;;34.28;59.17;100012.03;5017237;28;20240;-75
2022/06/25 07:48:19;;;;;;;0.88;0.82;;;;;;;34.16;59.00;100007.06;5004958;28;20180;-76
2022/06/25 07:53:29;;;;;;;1.50;1.13;;;;;;;33.79;59.54;100005.84;5004692;28;21526;-76
2022/06/25 07:55:54;;;;;;;1.90;0.80;;;;;;;33.61;59.88;100000.69;5005852;28;20255;-75
2022/06/25 07:58:20;;;;;;;1.77;1.00;;;;;;;33.21;60.18;100007.75;5018490;28;20188;-75
2022/06/25 08:00:45;;;;;;;1.38;1.05;;;;;;;32.20;61.81;100007.75;5003658;28;20180;-76
2022/06/25 08:03:11;;;;;;;3.33;1.10;;;;;;;31.77;62.13;100005.03;5002992;28;20351;-75
2022/06/25 08:05:37;;;;;;;2.33;1.00;;;;;;;31.23;63.09;99994.47;5000064;28;20798;-76
2022/06/25 08:08:02;;;;;;;1.02;0.93;;;;;;;30.99;63.22;99995.94;5002940;28;20195;-75
2022/06/25 08:10:28;;;;;;;2.30;0.90;;;;;;;30.99;63.76;100001.28;5003888;28;20180;-76
2022/06/25 08:12:53;;;;;;;1.55;1.00;;;;;;;31.17;62.80;99998.59;5009017;28;20180;-74
2022/06/25 08:15:20;;;;;;;1.00;0.87;;;;;;;31.14;61.96;99998.91;5015845;28;20176;-76
2022/06/25 08:17:46;;;;;;;1.17;0.70;;;;;;;31.06;62.10;99993.50;5002242;28;20291;-75
2022/06/25 08:20:11;;;;;;;1.20;0.90;;;;;;;30.99;62.42;100004.78;5001995;28;20260;-75
2022/06/25 08:22:36;;;;;;;1.07;1.00;;;;;;;31.03;62.35;99994.63;5019212;28;20234;-75
2022/06/25 08:25:03;;;;;;;1.47;1.07;;;;;;;30.90;63.21;99997.69;5002410;28;20298;-74
2022/06/25 08:27:29;;;;;;;1.67;1.23;;;;;;;30.81;64.53;100002.13;5003785;28;20186;-76
2022/06/25 08:29:54;;;;;;;1.37;1.10;;;;;;;30.85;64.77;99999.97;4998671;28;20267;-75
2022/06/25 08:32:20;;;;;;;1.40;0.80;;;;;;;30.87;64.56;99995.31;5007557;28;20176;-76
2022/06/25 08:34:45;;;;;;;1.70;0.90;;;;;;;30.94;64.15;99995.56;5006040;28;20207;-76
2022/06/25 08:37:10;;;;;;;1.03;0.90;;;;;;;30.96;65.10;99993.56;5003326;28;20188;-75
2022/06/25 08:39:36;;;;;;;1.20;1.03;;;;;;;30.88;64.46;99994.34;5013080;28;20180;-75
2022/06/25 08:42:03;;;;;;;1.57;1.13;;;;;;;30.79;64.32;100003.25;5003862;28;20184;-75
2022/06/25 08:44:30;;;;;;;1.10;1.00;;;;;;;30.71;64.18;99999.53;5017444;28;20208;-77
2022/06/25 08:46:56;;;;;;;1.10;0.93;;;;;;;30.59;64.72;99994.53;5022819;28;20235;-77
2022/06/25 08:49:22;;;;;;;1.00;1.00;;;;;;;30.37;63.93;99986.78;5004391;28;20192;-77
2022/06/25 08:51:48;;;;;;;0.83;0.83;;;;;;;30.06;64.18;99988.94;5006149;28;20173;-77
2022/06/25 08:54:15;;;;;;;1.40;0.90;;;;;;;29.77;64.40;99989.88;5018279;28;20346;-77
2022/06/25 08:56:41;;;;;;;2.23;1.10;;;;;;;29.35;64.91;99997.28;4993359;28;20169;-76
2022/06/25 08:59:07;;;;;;;1.40;1.17;;;;;;;28.97;65.84;99990.13;5003263;28;20670;-76
2022/06/25 09:01:33;;;;;;;1.17;0.87;;;;;;;28.80;67.03;99981.88;5004409;28;20733;-76
2022/06/25 09:03:58;;;;;;;1.10;1.00;;;;;;;28.67;67.81;99984.78;5004050;28;20283;-76
2022/06/25 09:06:23;;;;;;;1.93;1.07;;;;;;;28.48;68.50;99980.28;5005036;28;20847;-75
2022/06/25 09:09:12;;;;;;;1.10;0.90;;;;;;;28.29;67.83;99979.25;5005960;28;20218;-76
2022/06/25 09:11:53;;;;;;;1.43;1.23;;;;;;;28.17;68.65;99974.16;5012593;28;20188;-76
2022/06/25 09:14:24;;;;;;;0.90;0.90;;;;;;;28.09;68.53;99970.38;4998113;28;20208;-76
2022/06/25 09:16:58;;;;;;;1.20;1.10;;;;;;;28.12;69.38;99970.13;5006888;28;20181;-76
2022/06/25 09:19:48;;;;;;;0.80;0.73;;;;;;;28.14;69.11;99965.47;5004029;28;20417;-77
2022/06/25 09:22:20;;;;;;;1.50;1.10;;;;;;;28.11;68.94;99956.94;5003220;28;20645;-77
2022/06/25 09:24:47;;;;;;;1.47;1.10;;;;;;;28.03;67.50;99957.56;4999625;28;20222;-77
2022/06/25 09:27:16;;;;;;;0.90;0.90;;;;;;;27.88;67.81;99959.78;5004697;28;20188;-76
2022/06/25 09:29:44;;;;;;;1.53;1.20;;;;;;;27.68;67.43;99956.22;5027946;28;20227;-78
2022/06/25 09:32:11;;;;;;;1.13;1.03;;;;;;;27.45;68.06;99953.69;5006626;28;20184;-76
2022/06/25 09:34:38;;;;;;;1.33;1.20;;;;;;;27.37;69.84;99950.84;5006416;28;20206;-76
2022/06/25 09:37:22;;;;;;;1.33;1.20;;;;;;;27.15;70.97;99952.66;5006954;28;20234;-77
2022/06/25 09:39:49;;;;;;;1.47;1.10;;;;;;;27.12;70.49;99946.75;5028772;28;20736;-77
2022/06/25 09:42:28;;;;;;;1.80;1.23;;;;;;;27.11;69.93;99950.38;5024903;28;20275;-77
2022/06/25 09:45:09;;;;;;;1.00;0.90;;;;;;;27.12;69.76;99947.59;5025471;28;20260;-77
2022/06/25 09:47:43;;;;;;;1.10;1.10;;;;;;;27.06;69.60;99940.97;5021625;28;20192;-77
2022/06/25 09:50:17;;;;;;;1.70;1.10;;;;;;;26.90;70.05;99951.22;5006655;28;20231;-78
2022/06/25 09:52:57;;;;;;;1.20;1.10;;;;;;;26.81;70.73;99942.19;5007119;28;20619;-77
2022/06/25 09:55:33;;;;;;;3.60;1.33;;;;;;;26.75;70.35;99938.22;5006336;28;20282;-77
2022/06/25 09:58:00;;;;;;;1.30;1.20;;;;;;;26.75;70.30;99932.91;5006739;28;20191;-77
2022/06/25 10:00:26;;;;;;;1.17;1.07;;;;;;;26.66;70.16;99940.78;5002555;28;20172;-77
2022/06/25 10:02:55;;;;;;;1.50;1.10;;;;;;;26.57;70.32;99937.06;5006368;28;20179;-78
2022/06/25 10:05:30;;;;;;;1.30;1.20;;;;;;;26.62;71.23;99945.50;5015182;28;20208;-76
2022/06/25 10:08:04;;;;;;;1.30;1.20;;;;;;;26.87;71.84;99935.53;5007500;28;20183;-78
2022/06/25 10:10:53;;;;;;;1.63;1.20;;;;;;;27.20;71.77;99942.50;4999807;28;20184;-77
2022/06/25 10:13:19;;;;;;;1.67;1.57;;;;;;;27.54;71.22;99939.59;5008065;28;20204;-77
2022/06/25 10:15:45;;;;;;;1.40;1.30;;;;;;;27.83;70.74;99938.88;5009394;28;20191;-77
2022/06/25 10:18:11;;;;;;;1.57;1.47;;;;;;;27.95;70.62;99928.19;5005876;28;20247;-76
2022/06/25 10:20:38;;;;;;;1.40;1.30;;;;;;;27.94;70.06;99927.31;5015798;28;20791;-77
2022/06/25 10:23:06;;;;;;;1.20;1.10;;;;;;;27.83;69.90;99933.56;5018785;28;20567;-77
2022/06/25 10:25:32;;;;;;;1.50;1.40;;;;;;;27.65;70.39;99922.75;5005408;28;20204;-77
2022/06/25 10:28:13;;;;;;;1.73;1.43;;;;;;;27.37;71.31;99927.75;5003847;28;20180;-76
2022/06/25 10:30:45;;;;;;;1.30;1.20;;;;;;;27.20;71.67;99926.56;5006440;28;20206;-77
2022/06/25 10:33:12;;;;;;;1.43;1.33;;;;;;;27.17;71.28;99926.81;5018696;28;20254;-77
2022/06/25 10:35:40;;;;;;;1.50;1.30;;;;;;;27.24;71.38;99921.81;5001153;28;20181;-76
2022/06/25 10:38:09;;;;;;;1.27;1.17;;;;;;;27.46;70.90;99917.31;4997261;28;20254;-75
2022/06/25 10:40:57;;;;;;;1.10;1.10;;;;;;;27.71;69.99;99910.72;5000947;28;20181;-77
2022/06/25 10:43:49;;;;;;;1.23;1.13;;;;;;;27.98;69.56;99904.81;5007562;28;20683;-78
2022/06/25 10:46:33;;;;;;;1.33;1.23;;;;;;;27.97;69.06;99908.44;5010828;28;20266;-76
2022/06/25 10:49:19;;;;;;;1.23;1.13;;;;;;;27.97;70.01;99904.94;5007846;28;20172;-77
2022/06/25 10:51:49;;;;;;;1.40;1.30;;;;;;;28.00;70.13;99902.00;5000936;28;20176;-77
2022/06/25 10:54:26;;;;;;;1.40;1.30;;;;;;;27.92;70.12;99900.00;5020930;28;20259;-76
2022/06/25 10:57:00;;;;;;;1.20;1.10;;;;;;;27.79;70.44;99902.06;5007252;28;20184;-77
2022/06/25 10:59:46;;;;;;;1.33;1.23;;;;;;;27.48;71.39;99908.28;5022415;28;20195;-77
2022/06/25 11:02:15;;;;;;;1.50;1.40;;;;;;;27.30;71.74;99899.19;5023692;28;20187;-78
2022/06/25 11:04:52;;;;;;;2.00;1.20;;;;;;;27.49;71.81;99891.34;5020943;28;20207;-79
2022/06/25 11:07:24;;;;;;;2.97;1.50;;;;;;;27.71;72.43;99884.13;5021184;28;20336;-77
2022/06/25 11:09:55;;;;;;;2.60;1.60;;;;;;;27.98;72.03;99878.22;5004828;28;20528;-77
2022/06/25 11:12:21;;;;;;;1.30;1.20;;;;;;;28.23;72.17;99883.19;5002990;28;20188;-76
2022/06/25 11:14:57;;;;;;;1.80;1.70;;;;;;;28.30;72.30;99881.63;5009732;28;20219;-78
2022/06/25 11:17:23;;;;;;;4.13;1.50;;;;;;;27.91;71.61;99885.03;5005900;28;20187;-77
2022/06/25 11:19:49;;;;;;;1.67;1.57;;;;;;;27.67;72.70;99880.91;5006946;28;20184;-77
2022/06/25 11:22:14;;;;;;;1.30;1.20;;;;;;;27.54;73.09;99891.78;5005453;28;20663;-76
2022/06/25 11:28:47;;;;;;;2.00;1.33;;;;;;;27.54;73.13;99886.47;5022666;28;20521;-77
2022/06/25 11:30:16;;;;;;;1.50;1.40;;;;;;;28.30;72.10;99884.28;5008944;28;20277;-77
2022/06/25 11:32:47;;;;;;;1.60;1.50;;;;;;;28.91;70.62;99890.31;5031488;28;20187;-77
2022/06/25 11:35:13;;;;;;;1.40;1.30;;;;;;;29.32;69.96;99887.41;5007970;28;20188;-75
2022/06/25 11:37:38;;;;;;;1.60;1.50;;;;;;;29.73;69.43;99881.81;5005469;28;20499;-78
2022/06/25 11:40:13;;;;;;;1.50;1.40;;;;;;;30.12;69.99;99881.59;5007551;28;20192;-77